sensor_id;sensor_type;location;lat;lon;timestamp;P1;durP1;ratioP1;P2;durP2;ratioP2
68653;SDS011;55636;51.108;13.622;2023-02-28T00:00:28;7.07;;;5.23;;
68653;SDS011;55636;51.108;13.622;2023-02-28T00:01:31;6.30;;;5.47;;
68653;SDS011;55636;51.108;13.622;2023-02-28T00:02:34;7.67;;;5.87;;
68653;SDS011;55636;51.108;13.622;2023-02-28T00:03:36;6.57;;;5.60;;
68653;SDS011;55636;51.108;13.622;2023-02-28T00:04:39;6.80;;;5.60;;
68653;SDS011;55636;51.108;13.622;2023-02-28T00:05:42;7.60;;;5.73;;
68653;SDS011;55636;51.108;13.622;2023-02-28T00:06:44;6.63;;;5.60;;
68653;SDS011;55636;51.108;13.622;2023-02-28T00:07:46;7.33;;;5.67;;
68653;SDS011;55636;51.108;13.622;2023-02-28T00:08:49;6.90;;;5.50;;
68653;SDS011;55636;51.108;13.622;2023-02-28T00:09:52;7.60;;;5.93;;
68653;SDS011;55636;51.108;13.622;2023-02-28T00:10:54;7.17;;;5.50;;
68653;SDS011;55636;51.108;13.622;2023-02-28T00:11:56;7.27;;;5.53;;
68653;SDS011;55636;51.108;13.622;2023-02-28T00:12:59;9.20;;;5.97;;
68653;SDS011;55636;51.108;13.622;2023-02-28T00:14:08;7.50;;;5.77;;
68653;SDS011;55636;51.108;13.622;2023-02-28T00:15:10;6.57;;;5.37;;
68653;SDS011;55636;51.108;13.622;2023-02-28T00:16:14;6.70;;;5.37;;
68653;SDS011;55636;51.108;13.622;2023-02-28T00:17:19;7.40;;;5.17;;
68653;SDS011;55636;51.108;13.622;2023-02-28T00:18:23;6.47;;;5.03;;
68653;SDS011;55636;51.108;13.622;2023-02-28T00:19:25;7.20;;;5.53;;
68653;SDS011;55636;51.108;13.622;2023-02-28T00:20:28;6.97;;;5.40;;
68653;SDS011;55636;51.108;13.622;2023-02-28T00:21:30;7.30;;;6.13;;
68653;SDS011;55636;51.108;13.622;2023-02-28T00:22:33;7.33;;;5.63;;
68653;SDS011;55636;51.108;13.622;2023-02-28T00:23:36;6.70;;;5.43;;
68653;SDS011;55636;51.108;13.622;2023-02-28T00:24:38;8.13;;;6.10;;
68653;SDS011;55636;51.108;13.622;2023-02-28T00:25:41;7.40;;;5.90;;
68653;SDS011;55636;51.108;13.622;2023-02-28T00:26:44;7.70;;;5.60;;
68653;SDS011;55636;51.108;13.622;2023-02-28T00:27:47;8.00;;;5.23;;
68653;SDS011;55636;51.108;13.622;2023-02-28T00:28:51;6.67;;;5.40;;
68653;SDS011;55636;51.108;13.622;2023-02-28T00:29:54;7.57;;;5.10;;
68653;SDS011;55636;51.108;13.622;2023-02-28T00:30:57;6.57;;;5.60;;
68653;SDS011;55636;51.108;13.622;2023-02-28T00:32:00;6.87;;;5.27;;
68653;SDS011;55636;51.108;13.622;2023-02-28T00:33:02;7.83;;;5.47;;
68653;SDS011;55636;51.108;13.622;2023-02-28T00:34:04;6.33;;;5.20;;
68653;SDS011;55636;51.108;13.622;2023-02-28T00:35:07;6.63;;;5.33;;
68653;SDS011;55636;51.108;13.622;2023-02-28T00:36:10;8.00;;;5.33;;
68653;SDS011;55636;51.108;13.622;2023-02-28T00:37:13;8.30;;;5.40;;
68653;SDS011;55636;51.108;13.622;2023-02-28T00:38:15;6.23;;;5.17;;
68653;SDS011;55636;51.108;13.622;2023-02-28T00:39:18;7.37;;;5.50;;
68653;SDS011;55636;51.108;13.622;2023-02-28T00:40:20;7.10;;;5.20;;
68653;SDS011;55636;51.108;13.622;2023-02-28T00:41:23;6.30;;;5.03;;
68653;SDS011;55636;51.108;13.622;2023-02-28T00:42:31;7.47;;;5.60;;
68653;SDS011;55636;51.108;13.622;2023-02-28T00:43:36;7.60;;;5.33;;
68653;SDS011;55636;51.108;13.622;2023-02-28T00:44:40;6.20;;;4.53;;
68653;SDS011;55636;51.108;13.622;2023-02-28T00:45:46;5.90;;;4.97;;
68653;SDS011;55636;51.108;13.622;2023-02-28T00:46:50;6.40;;;4.97;;
68653;SDS011;55636;51.108;13.622;2023-02-28T00:47:53;6.43;;;5.27;;
68653;SDS011;55636;51.108;13.622;2023-02-28T00:48:56;7.97;;;5.10;;
68653;SDS011;55636;51.108;13.622;2023-02-28T00:49:58;6.07;;;4.90;;
68653;SDS011;55636;51.108;13.622;2023-02-28T00:51:00;5.83;;;4.93;;
68653;SDS011;55636;51.108;13.622;2023-02-28T00:52:04;6.53;;;5.20;;
68653;SDS011;55636;51.108;13.622;2023-02-28T00:53:06;5.37;;;4.60;;
68653;SDS011;55636;51.108;13.622;2023-02-28T00:54:08;7.03;;;5.03;;
68653;SDS011;55636;51.108;13.622;2023-02-28T00:55:10;5.97;;;4.97;;
68653;SDS011;55636;51.108;13.622;2023-02-28T00:56:15;5.77;;;4.73;;
68653;SDS011;55636;51.108;13.622;2023-02-28T00:57:17;5.50;;;4.57;;
68653;SDS011;55636;51.108;13.622;2023-02-28T00:58:20;5.93;;;4.50;;
68653;SDS011;55636;51.108;13.622;2023-02-28T00:59:25;6.27;;;5.30;;
68653;SDS011;55636;51.108;13.622;2023-02-28T01:00:27;6.00;;;4.77;;
68653;SDS011;55636;51.108;13.622;2023-02-28T01:01:29;5.67;;;4.73;;
68653;SDS011;55636;51.108;13.622;2023-02-28T01:02:33;7.47;;;4.97;;
68653;SDS011;55636;51.108;13.622;2023-02-28T01:03:35;5.17;;;4.50;;
68653;SDS011;55636;51.108;13.622;2023-02-28T01:04:37;5.10;;;4.37;;
68653;SDS011;55636;51.108;13.622;2023-02-28T01:05:39;6.83;;;5.13;;
68653;SDS011;55636;51.108;13.622;2023-02-28T01:06:43;6.07;;;4.70;;
68653;SDS011;55636;51.108;13.622;2023-02-28T01:07:45;6.27;;;5.00;;
68653;SDS011;55636;51.108;13.622;2023-02-28T01:08:47;7.17;;;4.73;;
68653;SDS011;55636;51.108;13.622;2023-02-28T01:09:50;6.03;;;4.60;;
68653;SDS011;55636;51.108;13.622;2023-02-28T01:10:52;5.90;;;4.83;;
68653;SDS011;55636;51.108;13.622;2023-02-28T01:11:54;6.80;;;4.97;;
68653;SDS011;55636;51.108;13.622;2023-02-28T01:12:57;6.73;;;4.60;;
68653;SDS011;55636;51.108;13.622;2023-02-28T01:13:59;5.70;;;4.50;;
68653;SDS011;55636;51.108;13.622;2023-02-28T01:15:02;4.73;;;4.20;;
68653;SDS011;55636;51.108;13.622;2023-02-28T01:16:04;5.70;;;4.70;;
68653;SDS011;55636;51.108;13.622;2023-02-28T01:17:07;5.33;;;4.40;;
68653;SDS011;55636;51.108;13.622;2023-02-28T01:18:09;6.20;;;4.93;;
68653;SDS011;55636;51.108;13.622;2023-02-28T01:19:11;6.33;;;5.30;;
68653;SDS011;55636;51.108;13.622;2023-02-28T01:20:14;7.70;;;5.57;;
68653;SDS011;55636;51.108;13.622;2023-02-28T01:21:17;6.20;;;5.00;;
68653;SDS011;55636;51.108;13.622;2023-02-28T01:22:21;10.77;;;5.67;;
68653;SDS011;55636;51.108;13.622;2023-02-28T01:23:23;6.73;;;5.63;;
68653;SDS011;55636;51.108;13.622;2023-02-28T01:24:26;5.40;;;4.60;;
68653;SDS011;55636;51.108;13.622;2023-02-28T01:25:28;7.60;;;4.93;;
68653;SDS011;55636;51.108;13.622;2023-02-28T01:26:31;5.20;;;4.70;;
68653;SDS011;55636;51.108;13.622;2023-02-28T01:27:33;5.27;;;4.70;;
68653;SDS011;55636;51.108;13.622;2023-02-28T01:28:35;5.13;;;4.30;;
68653;SDS011;55636;51.108;13.622;2023-02-28T01:29:38;7.13;;;5.30;;
68653;SDS011;55636;51.108;13.622;2023-02-28T01:30:40;5.93;;;4.73;;
68653;SDS011;55636;51.108;13.622;2023-02-28T01:31:42;8.00;;;5.30;;
68653;SDS011;55636;51.108;13.622;2023-02-28T01:32:44;6.43;;;4.80;;
68653;SDS011;55636;51.108;13.622;2023-02-28T01:33:47;5.90;;;4.53;;
68653;SDS011;55636;51.108;13.622;2023-02-28T01:34:49;5.57;;;4.60;;
68653;SDS011;55636;51.108;13.622;2023-02-28T01:35:58;5.90;;;4.77;;
68653;SDS011;55636;51.108;13.622;2023-02-28T01:37:03;6.73;;;5.07;;
68653;SDS011;55636;51.108;13.622;2023-02-28T01:38:06;6.70;;;4.90;;
68653;SDS011;55636;51.108;13.622;2023-02-28T01:39:23;5.83;;;5.00;;
68653;SDS011;55636;51.108;13.622;2023-02-28T01:40:25;6.90;;;5.10;;
68653;SDS011;55636;51.108;13.622;2023-02-28T01:41:30;5.53;;;4.80;;
68653;SDS011;55636;51.108;13.622;2023-02-28T01:42:35;6.10;;;4.60;;
68653;SDS011;55636;51.108;13.622;2023-02-28T01:46:16;5.30;;;4.20;;
68653;SDS011;55636;51.108;13.622;2023-02-28T01:47:18;5.50;;;4.40;;
68653;SDS011;55636;51.108;13.622;2023-02-28T01:48:24;6.20;;;4.03;;
68653;SDS011;55636;51.108;13.622;2023-02-28T01:49:29;5.77;;;4.30;;
68653;SDS011;55636;51.108;13.622;2023-02-28T01:50:33;6.23;;;4.30;;
68653;SDS011;55636;51.108;13.622;2023-02-28T01:51:45;6.10;;;4.67;;
68653;SDS011;55636;51.108;13.622;2023-02-28T01:52:53;6.27;;;4.47;;
68653;SDS011;55636;51.108;13.622;2023-02-28T01:53:59;5.53;;;4.47;;
68653;SDS011;55636;51.108;13.622;2023-02-28T01:55:05;6.90;;;4.90;;
68653;SDS011;55636;51.108;13.622;2023-02-28T01:56:10;5.23;;;4.10;;
68653;SDS011;55636;51.108;13.622;2023-02-28T01:57:24;5.57;;;4.33;;
68653;SDS011;55636;51.108;13.622;2023-02-28T01:58:32;4.87;;;4.20;;
68653;SDS011;55636;51.108;13.622;2023-02-28T02:00:48;4.57;;;3.83;;
68653;SDS011;55636;51.108;13.622;2023-02-28T02:01:52;5.83;;;4.20;;
68653;SDS011;55636;51.108;13.622;2023-02-28T02:02:57;4.57;;;3.73;;
68653;SDS011;55636;51.108;13.622;2023-02-28T02:04:02;4.57;;;3.87;;
68653;SDS011;55636;51.108;13.622;2023-02-28T02:05:12;4.93;;;3.90;;
68653;SDS011;55636;51.108;13.622;2023-02-28T02:06:19;6.23;;;4.10;;
68653;SDS011;55636;51.108;13.622;2023-02-28T02:07:21;6.73;;;4.20;;
68653;SDS011;55636;51.108;13.622;2023-02-28T02:08:26;5.17;;;4.10;;
68653;SDS011;55636;51.108;13.622;2023-02-28T02:09:31;4.87;;;3.80;;
68653;SDS011;55636;51.108;13.622;2023-02-28T02:10:35;5.40;;;4.10;;
68653;SDS011;55636;51.108;13.622;2023-02-28T02:11:42;5.40;;;4.47;;
68653;SDS011;55636;51.108;13.622;2023-02-28T02:16:51;5.80;;;3.90;;
68653;SDS011;55636;51.108;13.622;2023-02-28T02:18:48;7.53;;;3.93;;
68653;SDS011;55636;51.108;13.622;2023-02-28T02:25:33;5.17;;;3.77;;
68653;SDS011;55636;51.108;13.622;2023-02-28T02:26:48;5.20;;;3.57;;
68653;SDS011;55636;51.108;13.622;2023-02-28T02:28:25;5.43;;;3.80;;
68653;SDS011;55636;51.108;13.622;2023-02-28T02:34:22;5.80;;;3.70;;
68653;SDS011;55636;51.108;13.622;2023-02-28T02:35:47;5.00;;;3.97;;
68653;SDS011;55636;51.108;13.622;2023-02-28T02:38:20;3.90;;;3.50;;
68653;SDS011;55636;51.108;13.622;2023-02-28T02:41:59;6.67;;;3.70;;
68653;SDS011;55636;51.108;13.622;2023-02-28T02:43:22;4.37;;;3.43;;
68653;SDS011;55636;51.108;13.622;2023-02-28T02:46:17;4.63;;;3.53;;
68653;SDS011;55636;51.108;13.622;2023-02-28T02:47:08;5.13;;;3.60;;
68653;SDS011;55636;51.108;13.622;2023-02-28T02:48:15;4.40;;;3.37;;
68653;SDS011;55636;51.108;13.622;2023-02-28T02:49:22;4.40;;;3.60;;
68653;SDS011;55636;51.108;13.622;2023-02-28T02:50:31;5.83;;;3.87;;
68653;SDS011;55636;51.108;13.622;2023-02-28T02:51:39;4.30;;;3.40;;
68653;SDS011;55636;51.108;13.622;2023-02-28T02:52:44;4.73;;;3.50;;
68653;SDS011;55636;51.108;13.622;2023-02-28T02:53:55;4.73;;;3.87;;
68653;SDS011;55636;51.108;13.622;2023-02-28T02:55:03;5.37;;;3.73;;
68653;SDS011;55636;51.108;13.622;2023-02-28T02:56:09;4.93;;;3.80;;
68653;SDS011;55636;51.108;13.622;2023-02-28T02:57:19;5.03;;;3.90;;
68653;SDS011;55636;51.108;13.622;2023-02-28T02:58:30;4.53;;;3.50;;
68653;SDS011;55636;51.108;13.622;2023-02-28T02:59:36;5.37;;;4.10;;
68653;SDS011;55636;51.108;13.622;2023-02-28T03:00:41;5.07;;;4.20;;
68653;SDS011;55636;51.108;13.622;2023-02-28T03:01:49;5.87;;;4.10;;
68653;SDS011;55636;51.108;13.622;2023-02-28T03:02:54;5.53;;;4.00;;
68653;SDS011;55636;51.108;13.622;2023-02-28T03:04:04;6.57;;;4.10;;
68653;SDS011;55636;51.108;13.622;2023-02-28T03:05:15;6.47;;;4.30;;
68653;SDS011;55636;51.108;13.622;2023-02-28T03:06:22;5.77;;;4.23;;
68653;SDS011;55636;51.108;13.622;2023-02-28T03:07:26;5.60;;;3.90;;
68653;SDS011;55636;51.108;13.622;2023-02-28T03:08:29;5.67;;;4.13;;
68653;SDS011;55636;51.108;13.622;2023-02-28T03:09:37;5.90;;;4.20;;
68653;SDS011;55636;51.108;13.622;2023-02-28T03:11:52;5.13;;;4.10;;
68653;SDS011;55636;51.108;13.622;2023-02-28T03:13:35;4.70;;;3.90;;
68653;SDS011;55636;51.108;13.622;2023-02-28T03:15:32;5.47;;;3.83;;
68653;SDS011;55636;51.108;13.622;2023-02-28T03:21:14;5.53;;;3.63;;
68653;SDS011;55636;51.108;13.622;2023-02-28T03:24:03;4.60;;;3.77;;
68653;SDS011;55636;51.108;13.622;2023-02-28T03:25:32;4.87;;;3.70;;
68653;SDS011;55636;51.108;13.622;2023-02-28T03:26:43;5.73;;;4.10;;
68653;SDS011;55636;51.108;13.622;2023-02-28T03:29:27;4.90;;;4.13;;
68653;SDS011;55636;51.108;13.622;2023-02-28T03:30:42;6.07;;;4.27;;
68653;SDS011;55636;51.108;13.622;2023-02-28T03:32:04;5.80;;;4.30;;
68653;SDS011;55636;51.108;13.622;2023-02-28T03:33:28;5.03;;;3.97;;
68653;SDS011;55636;51.108;13.622;2023-02-28T03:34:38;5.37;;;3.80;;
68653;SDS011;55636;51.108;13.622;2023-02-28T03:35:48;5.30;;;4.23;;
68653;SDS011;55636;51.108;13.622;2023-02-28T03:36:55;6.03;;;4.00;;
68653;SDS011;55636;51.108;13.622;2023-02-28T03:38:05;4.60;;;3.90;;
68653;SDS011;55636;51.108;13.622;2023-02-28T03:39:17;6.73;;;4.27;;
68653;SDS011;55636;51.108;13.622;2023-02-28T03:40:25;5.10;;;3.90;;
68653;SDS011;55636;51.108;13.622;2023-02-28T03:41:41;6.97;;;3.90;;
68653;SDS011;55636;51.108;13.622;2023-02-28T03:42:50;6.73;;;4.23;;
68653;SDS011;55636;51.108;13.622;2023-02-28T03:44:03;5.30;;;4.27;;
68653;SDS011;55636;51.108;13.622;2023-02-28T03:45:12;6.00;;;4.00;;
68653;SDS011;55636;51.108;13.622;2023-02-28T03:46:20;6.33;;;4.80;;
68653;SDS011;55636;51.108;13.622;2023-02-28T03:47:31;6.87;;;4.80;;
68653;SDS011;55636;51.108;13.622;2023-02-28T03:48:42;6.37;;;4.83;;
68653;SDS011;55636;51.108;13.622;2023-02-28T03:49:49;7.20;;;4.83;;
68653;SDS011;55636;51.108;13.622;2023-02-28T03:50:55;6.90;;;4.73;;
68653;SDS011;55636;51.108;13.622;2023-02-28T03:52:02;6.50;;;4.53;;
68653;SDS011;55636;51.108;13.622;2023-02-28T03:53:15;5.80;;;4.57;;
68653;SDS011;55636;51.108;13.622;2023-02-28T03:54:31;9.50;;;5.10;;
68653;SDS011;55636;51.108;13.622;2023-02-28T03:55:41;5.80;;;4.60;;
68653;SDS011;55636;51.108;13.622;2023-02-28T03:56:54;7.17;;;4.80;;
68653;SDS011;55636;51.108;13.622;2023-02-28T03:59:43;5.77;;;3.90;;
68653;SDS011;55636;51.108;13.622;2023-02-28T04:00:51;5.97;;;4.47;;
68653;SDS011;55636;51.108;13.622;2023-02-28T04:02:00;5.97;;;4.53;;
68653;SDS011;55636;51.108;13.622;2023-02-28T04:03:03;6.13;;;4.60;;
68653;SDS011;55636;51.108;13.622;2023-02-28T04:04:07;6.30;;;4.33;;
68653;SDS011;55636;51.108;13.622;2023-02-28T04:05:10;6.00;;;4.43;;
68653;SDS011;55636;51.108;13.622;2023-02-28T04:06:14;5.40;;;4.10;;
68653;SDS011;55636;51.108;13.622;2023-02-28T04:07:19;6.60;;;4.10;;
68653;SDS011;55636;51.108;13.622;2023-02-28T04:08:22;5.37;;;4.20;;
68653;SDS011;55636;51.108;13.622;2023-02-28T04:09:24;5.93;;;4.43;;
68653;SDS011;55636;51.108;13.622;2023-02-28T04:10:26;6.97;;;4.30;;
68653;SDS011;55636;51.108;13.622;2023-02-28T04:11:38;6.77;;;4.63;;
68653;SDS011;55636;51.108;13.622;2023-02-28T04:12:50;5.77;;;4.40;;
68653;SDS011;55636;51.108;13.622;2023-02-28T04:13:53;5.97;;;4.30;;
68653;SDS011;55636;51.108;13.622;2023-02-28T04:14:55;6.03;;;4.37;;
68653;SDS011;55636;51.108;13.622;2023-02-28T04:15:57;5.10;;;4.13;;
68653;SDS011;55636;51.108;13.622;2023-02-28T04:16:59;5.40;;;4.03;;
68653;SDS011;55636;51.108;13.622;2023-02-28T04:18:02;5.00;;;4.33;;
68653;SDS011;55636;51.108;13.622;2023-02-28T04:19:04;6.07;;;4.50;;
68653;SDS011;55636;51.108;13.622;2023-02-28T04:20:10;6.43;;;4.10;;
68653;SDS011;55636;51.108;13.622;2023-02-28T04:21:13;5.50;;;4.27;;
68653;SDS011;55636;51.108;13.622;2023-02-28T04:22:15;6.33;;;4.30;;
68653;SDS011;55636;51.108;13.622;2023-02-28T04:23:19;5.40;;;4.43;;
68653;SDS011;55636;51.108;13.622;2023-02-28T04:24:23;4.40;;;3.90;;
68653;SDS011;55636;51.108;13.622;2023-02-28T04:25:27;5.73;;;4.17;;
68653;SDS011;55636;51.108;13.622;2023-02-28T04:26:30;5.23;;;4.27;;
68653;SDS011;55636;51.108;13.622;2023-02-28T04:27:33;6.80;;;4.40;;
68653;SDS011;55636;51.108;13.622;2023-02-28T04:28:36;5.33;;;4.17;;
68653;SDS011;55636;51.108;13.622;2023-02-28T04:29:39;5.07;;;4.10;;
68653;SDS011;55636;51.108;13.622;2023-02-28T04:30:42;9.13;;;4.27;;
68653;SDS011;55636;51.108;13.622;2023-02-28T04:31:44;5.87;;;4.40;;
68653;SDS011;55636;51.108;13.622;2023-02-28T04:32:46;5.70;;;4.20;;
68653;SDS011;55636;51.108;13.622;2023-02-28T04:33:48;6.70;;;4.60;;
68653;SDS011;55636;51.108;13.622;2023-02-28T04:34:51;5.53;;;4.27;;
68653;SDS011;55636;51.108;13.622;2023-02-28T04:36:02;7.03;;;4.00;;
68653;SDS011;55636;51.108;13.622;2023-02-28T04:37:07;6.20;;;4.60;;
68653;SDS011;55636;51.108;13.622;2023-02-28T04:38:16;5.43;;;4.20;;
68653;SDS011;55636;51.108;13.622;2023-02-28T04:39:20;6.33;;;4.33;;
68653;SDS011;55636;51.108;13.622;2023-02-28T04:40:23;5.20;;;4.07;;
68653;SDS011;55636;51.108;13.622;2023-02-28T04:41:25;5.67;;;4.13;;
68653;SDS011;55636;51.108;13.622;2023-02-28T04:42:31;4.93;;;4.03;;
68653;SDS011;55636;51.108;13.622;2023-02-28T04:43:37;5.30;;;4.00;;
68653;SDS011;55636;51.108;13.622;2023-02-28T04:44:39;5.47;;;3.97;;
68653;SDS011;55636;51.108;13.622;2023-02-28T04:45:41;5.60;;;4.13;;
68653;SDS011;55636;51.108;13.622;2023-02-28T04:46:44;6.03;;;4.40;;
68653;SDS011;55636;51.108;13.622;2023-02-28T04:47:46;4.97;;;4.30;;
68653;SDS011;55636;51.108;13.622;2023-02-28T04:48:48;5.30;;;4.40;;
68653;SDS011;55636;51.108;13.622;2023-02-28T04:49:51;6.47;;;4.43;;
68653;SDS011;55636;51.108;13.622;2023-02-28T04:50:54;7.37;;;4.63;;
68653;SDS011;55636;51.108;13.622;2023-02-28T04:51:56;5.30;;;4.40;;
68653;SDS011;55636;51.108;13.622;2023-02-28T04:52:58;6.00;;;4.20;;
68653;SDS011;55636;51.108;13.622;2023-02-28T04:54:00;5.47;;;4.13;;
68653;SDS011;55636;51.108;13.622;2023-02-28T04:55:03;5.77;;;4.50;;
68653;SDS011;55636;51.108;13.622;2023-02-28T04:56:06;6.10;;;4.30;;
68653;SDS011;55636;51.108;13.622;2023-02-28T04:57:09;5.30;;;4.10;;
68653;SDS011;55636;51.108;13.622;2023-02-28T04:58:13;5.27;;;4.47;;
68653;SDS011;55636;51.108;13.622;2023-02-28T04:59:16;6.73;;;4.50;;
68653;SDS011;55636;51.108;13.622;2023-02-28T05:00:19;5.30;;;4.40;;
68653;SDS011;55636;51.108;13.622;2023-02-28T05:02:29;6.07;;;4.07;;
68653;SDS011;55636;51.108;13.622;2023-02-28T05:03:32;5.67;;;4.47;;
68653;SDS011;55636;51.108;13.622;2023-02-28T05:04:34;6.13;;;4.30;;
68653;SDS011;55636;51.108;13.622;2023-02-28T05:05:36;5.27;;;4.20;;
68653;SDS011;55636;51.108;13.622;2023-02-28T05:06:38;5.77;;;4.43;;
68653;SDS011;55636;51.108;13.622;2023-02-28T05:07:41;4.87;;;4.30;;
68653;SDS011;55636;51.108;13.622;2023-02-28T05:08:43;4.80;;;4.30;;
68653;SDS011;55636;51.108;13.622;2023-02-28T05:09:45;6.43;;;4.70;;
68653;SDS011;55636;51.108;13.622;2023-02-28T05:10:47;5.40;;;4.30;;
68653;SDS011;55636;51.108;13.622;2023-02-28T05:11:51;7.20;;;4.87;;
68653;SDS011;55636;51.108;13.622;2023-02-28T05:12:53;6.33;;;4.30;;
68653;SDS011;55636;51.108;13.622;2023-02-28T05:13:56;4.90;;;4.20;;
68653;SDS011;55636;51.108;13.622;2023-02-28T05:15:00;5.20;;;4.27;;
68653;SDS011;55636;51.108;13.622;2023-02-28T05:16:04;7.53;;;4.47;;
68653;SDS011;55636;51.108;13.622;2023-02-28T05:17:07;7.33;;;4.77;;
68653;SDS011;55636;51.108;13.622;2023-02-28T05:18:10;6.33;;;4.70;;
68653;SDS011;55636;51.108;13.622;2023-02-28T05:19:12;6.97;;;4.73;;
68653;SDS011;55636;51.108;13.622;2023-02-28T05:20:15;6.30;;;4.73;;
68653;SDS011;55636;51.108;13.622;2023-02-28T05:22:29;6.50;;;4.47;;
68653;SDS011;55636;51.108;13.622;2023-02-28T05:23:32;8.13;;;4.83;;
68653;SDS011;55636;51.108;13.622;2023-02-28T05:24:34;5.73;;;4.50;;
68653;SDS011;55636;51.108;13.622;2023-02-28T05:25:36;6.37;;;4.53;;
68653;SDS011;55636;51.108;13.622;2023-02-28T05:26:41;5.53;;;4.20;;
68653;SDS011;55636;51.108;13.622;2023-02-28T05:27:44;5.03;;;4.50;;
68653;SDS011;55636;51.108;13.622;2023-02-28T05:28:47;6.10;;;4.40;;
68653;SDS011;55636;51.108;13.622;2023-02-28T05:29:49;6.07;;;4.17;;
68653;SDS011;55636;51.108;13.622;2023-02-28T05:30:51;7.80;;;4.63;;
68653;SDS011;55636;51.108;13.622;2023-02-28T05:31:53;5.93;;;4.50;;
68653;SDS011;55636;51.108;13.622;2023-02-28T05:32:56;9.90;;;4.20;;
68653;SDS011;55636;51.108;13.622;2023-02-28T05:33:58;8.77;;;4.30;;
68653;SDS011;55636;51.108;13.622;2023-02-28T05:35:00;8.23;;;4.80;;
68653;SDS011;55636;51.108;13.622;2023-02-28T05:36:03;6.30;;;4.40;;
68653;SDS011;55636;51.108;13.622;2023-02-28T05:37:06;6.97;;;4.50;;
68653;SDS011;55636;51.108;13.622;2023-02-28T05:38:12;8.33;;;4.50;;
68653;SDS011;55636;51.108;13.622;2023-02-28T05:39:15;5.70;;;4.57;;
68653;SDS011;55636;51.108;13.622;2023-02-28T05:40:17;5.80;;;4.87;;
68653;SDS011;55636;51.108;13.622;2023-02-28T05:41:22;7.10;;;4.73;;
68653;SDS011;55636;51.108;13.622;2023-02-28T05:42:24;6.80;;;4.20;;
68653;SDS011;55636;51.108;13.622;2023-02-28T05:43:26;6.60;;;5.53;;
68653;SDS011;55636;51.108;13.622;2023-02-28T05:44:29;5.67;;;5.03;;
68653;SDS011;55636;51.108;13.622;2023-02-28T05:45:31;8.10;;;5.17;;
68653;SDS011;55636;51.108;13.622;2023-02-28T05:46:33;7.47;;;5.27;;
68653;SDS011;55636;51.108;13.622;2023-02-28T05:47:35;7.83;;;5.33;;
68653;SDS011;55636;51.108;13.622;2023-02-28T05:48:38;7.37;;;5.23;;
68653;SDS011;55636;51.108;13.622;2023-02-28T05:49:43;7.00;;;5.50;;
68653;SDS011;55636;51.108;13.622;2023-02-28T05:50:45;6.17;;;5.27;;
68653;SDS011;55636;51.108;13.622;2023-02-28T05:51:47;8.87;;;5.40;;
68653;SDS011;55636;51.108;13.622;2023-02-28T05:52:50;7.10;;;5.37;;
68653;SDS011;55636;51.108;13.622;2023-02-28T05:53:53;5.83;;;5.00;;
68653;SDS011;55636;51.108;13.622;2023-02-28T05:54:56;7.77;;;5.77;;
68653;SDS011;55636;51.108;13.622;2023-02-28T05:55:58;6.87;;;5.50;;
68653;SDS011;55636;51.108;13.622;2023-02-28T05:57:01;9.07;;;5.53;;
68653;SDS011;55636;51.108;13.622;2023-02-28T05:58:16;8.17;;;6.90;;
68653;SDS011;55636;51.108;13.622;2023-02-28T05:59:18;8.43;;;7.60;;
68653;SDS011;55636;51.108;13.622;2023-02-28T06:00:20;10.07;;;7.77;;
68653;SDS011;55636;51.108;13.622;2023-02-28T06:02:38;11.33;;;8.10;;
68653;SDS011;55636;51.108;13.622;2023-02-28T06:03:42;8.00;;;6.90;;
68653;SDS011;55636;51.108;13.622;2023-02-28T06:04:44;10.70;;;7.90;;
68653;SDS011;55636;51.108;13.622;2023-02-28T06:05:47;14.03;;;11.07;;
68653;SDS011;55636;51.108;13.622;2023-02-28T06:06:50;14.50;;;11.17;;
68653;SDS011;55636;51.108;13.622;2023-02-28T06:07:52;13.90;;;10.40;;
68653;SDS011;55636;51.108;13.622;2023-02-28T06:08:54;15.57;;;11.20;;
68653;SDS011;55636;51.108;13.622;2023-02-28T06:09:57;13.67;;;10.33;;
68653;SDS011;55636;51.108;13.622;2023-02-28T06:11:02;12.30;;;9.47;;
68653;SDS011;55636;51.108;13.622;2023-02-28T06:12:06;12.03;;;8.47;;
68653;SDS011;55636;51.108;13.622;2023-02-28T06:13:09;10.67;;;7.90;;
68653;SDS011;55636;51.108;13.622;2023-02-28T06:14:14;9.27;;;6.80;;
68653;SDS011;55636;51.108;13.622;2023-02-28T06:15:20;9.20;;;6.33;;
68653;SDS011;55636;51.108;13.622;2023-02-28T06:16:23;8.53;;;6.33;;
68653;SDS011;55636;51.108;13.622;2023-02-28T06:17:26;7.80;;;6.37;;
68653;SDS011;55636;51.108;13.622;2023-02-28T06:18:28;10.63;;;6.47;;
68653;SDS011;55636;51.108;13.622;2023-02-28T06:19:31;9.47;;;6.27;;
68653;SDS011;55636;51.108;13.622;2023-02-28T06:20:33;8.50;;;6.67;;
68653;SDS011;55636;51.108;13.622;2023-02-28T06:21:36;9.67;;;7.50;;
68653;SDS011;55636;51.108;13.622;2023-02-28T06:22:39;9.47;;;6.90;;
68653;SDS011;55636;51.108;13.622;2023-02-28T06:23:41;9.47;;;6.83;;
68653;SDS011;55636;51.108;13.622;2023-02-28T06:24:43;9.40;;;6.47;;
68653;SDS011;55636;51.108;13.622;2023-02-28T06:25:46;7.87;;;5.90;;
68653;SDS011;55636;51.108;13.622;2023-02-28T06:26:49;7.37;;;5.80;;
68653;SDS011;55636;51.108;13.622;2023-02-28T06:27:51;6.90;;;5.43;;
68653;SDS011;55636;51.108;13.622;2023-02-28T06:28:54;7.80;;;5.70;;
68653;SDS011;55636;51.108;13.622;2023-02-28T06:29:57;8.37;;;5.97;;
68653;SDS011;55636;51.108;13.622;2023-02-28T06:31:08;9.33;;;6.13;;
68653;SDS011;55636;51.108;13.622;2023-02-28T06:32:11;7.53;;;5.87;;
68653;SDS011;55636;51.108;13.622;2023-02-28T06:33:13;6.40;;;5.60;;
68653;SDS011;55636;51.108;13.622;2023-02-28T06:34:16;9.27;;;5.70;;
68653;SDS011;55636;51.108;13.622;2023-02-28T06:35:18;10.30;;;6.03;;
68653;SDS011;55636;51.108;13.622;2023-02-28T06:36:20;7.87;;;5.80;;
68653;SDS011;55636;51.108;13.622;2023-02-28T06:37:23;11.73;;;6.27;;
68653;SDS011;55636;51.108;13.622;2023-02-28T06:38:28;7.47;;;5.90;;
68653;SDS011;55636;51.108;13.622;2023-02-28T06:39:30;7.17;;;5.80;;
68653;SDS011;55636;51.108;13.622;2023-02-28T06:40:33;7.47;;;5.67;;
68653;SDS011;55636;51.108;13.622;2023-02-28T06:41:37;9.67;;;6.13;;
68653;SDS011;55636;51.108;13.622;2023-02-28T06:42:55;8.67;;;5.43;;
68653;SDS011;55636;51.108;13.622;2023-02-28T06:43:57;7.63;;;5.70;;
68653;SDS011;55636;51.108;13.622;2023-02-28T06:44:59;9.07;;;6.43;;
68653;SDS011;55636;51.108;13.622;2023-02-28T06:46:02;8.90;;;6.17;;
68653;SDS011;55636;51.108;13.622;2023-02-28T06:47:06;9.47;;;6.30;;
68653;SDS011;55636;51.108;13.622;2023-02-28T06:48:08;10.27;;;6.43;;
68653;SDS011;55636;51.108;13.622;2023-02-28T06:49:12;11.50;;;6.10;;
68653;SDS011;55636;51.108;13.622;2023-02-28T06:50:14;9.37;;;5.67;;
68653;SDS011;55636;51.108;13.622;2023-02-28T06:51:21;8.17;;;5.90;;
68653;SDS011;55636;51.108;13.622;2023-02-28T06:52:24;8.73;;;5.83;;
68653;SDS011;55636;51.108;13.622;2023-02-28T06:53:26;10.10;;;6.20;;
68653;SDS011;55636;51.108;13.622;2023-02-28T06:54:28;9.87;;;5.87;;
68653;SDS011;55636;51.108;13.622;2023-02-28T06:55:31;10.80;;;6.33;;
68653;SDS011;55636;51.108;13.622;2023-02-28T06:56:33;7.37;;;5.83;;
68653;SDS011;55636;51.108;13.622;2023-02-28T06:57:35;8.63;;;5.60;;
68653;SDS011;55636;51.108;13.622;2023-02-28T06:58:38;8.67;;;5.90;;
68653;SDS011;55636;51.108;13.622;2023-02-28T06:59:41;8.10;;;5.93;;
68653;SDS011;55636;51.108;13.622;2023-02-28T07:00:44;7.83;;;5.83;;
68653;SDS011;55636;51.108;13.622;2023-02-28T07:01:47;7.97;;;5.60;;
68653;SDS011;55636;51.108;13.622;2023-02-28T07:02:51;8.30;;;5.63;;
68653;SDS011;55636;51.108;13.622;2023-02-28T07:03:55;7.60;;;5.63;;